Ciclone tropical SEROJA 2021: trajetória, intensidade e histórico
12/04/2021, 00:00:00
2/04/2021, 12:00:00 – 12/04/2021, 00:00:00
Trajetória histórica
Acompanhe a evolução e o deslocamento de Ciclone tropical SEROJA em 2021, com a trajetória completa registrada, ventos máximos sustentados de 75 nós, pressão central mínima e cronologia detalhada.
| Data | Hora | Tipo | Ventokm/h | PressãohPa |
|---|---|---|---|---|
| 12/04 | 00:00 | EXCiclone extratropical | 75 | 990 |
| 11/04 | 21:00 | TSTempestade tropical | 95 | 984 |
| 11/04 | 18:00 | TDDepressão tropical | 110 | 978 |
| 11/04 | 15:00 | C1Ciclone tropical de categoria 1 | 125 | 974 |
| 11/04 | 12:00 | C2Ciclone tropical de categoria 2 | 140 | 969 |
| 11/04 | 09:00 | TCCiclone tropical | 140 | 969 |
| 11/04 | 06:00 | C2Ciclone tropical de categoria 2 | 140 | 968 |
| 11/04 | 03:00 | TCCiclone tropical | 130 | 973 |
| 11/04 | 00:00 | C1Ciclone tropical de categoria 1 | 120 | 978 |
| 10/04 | 21:00 | TSTempestade tropical | 115 | 980 |
| 10/04 | 18:00 | C1Ciclone tropical de categoria 1 | 110 | 982 |
| 10/04 | 15:00 | TSTempestade tropical | 105 | 983 |
| 10/04 | 12:00 | C1Ciclone tropical de categoria 1 | 100 | 984 |
| 10/04 | 09:00 | TSTempestade tropical | 105 | 983 |
| 10/04 | 06:00 | C1Ciclone tropical de categoria 1 | 110 | 981 |
| 10/04 | 03:00 | TSTempestade tropical | 105 | 984 |
| 10/04 | 00:00 | C1Ciclone tropical de categoria 1 | 100 | 986 |
| 09/04 | 21:00 | TSTempestade tropical | 105 | 984 |
| 09/04 | 18:00 | C1Ciclone tropical de categoria 1 | 110 | 981 |
| 09/04 | 15:00 | TSTempestade tropical | 105 | 982 |
| 09/04 | 12:00 | C1Ciclone tropical de categoria 1 | 100 | 983 |
| 09/04 | 09:00 | TSTempestade tropical | 100 | 985 |
| 09/04 | 06:00 | C1Ciclone tropical de categoria 1 | 95 | 987 |
| 09/04 | 03:00 | TSTempestade tropical | 90 | 990 |
| 09/04 | 00:00 | C1Ciclone tropical de categoria 1 | 85 | 992 |
| 08/04 | 21:00 | TSTempestade tropical | 80 | 993 |
| 08/04 | 18:00 | C1Ciclone tropical de categoria 1 | 75 | 994 |
| 08/04 | 15:00 | TSTempestade tropical | 75 | 995 |
| 08/04 | 12:00 | TDDepressão tropical | 75 | 996 |
| 08/04 | 09:00 | TSTempestade tropical | 75 | 995 |
| 08/04 | 06:00 | TDDepressão tropical | 75 | 994 |
| 08/04 | 03:00 | TSTempestade tropical | 75 | 996 |
| 08/04 | 00:00 | TDDepressão tropical | 75 | 998 |
| 07/04 | 21:00 | TSTempestade tropical | 80 | 998 |
| 07/04 | 18:00 | TDDepressão tropical | 85 | 998 |
| 07/04 | 15:00 | TSTempestade tropical | 85 | 998 |
| 07/04 | 12:00 | TDDepressão tropical | 85 | 998 |
| 07/04 | 09:00 | TSTempestade tropical | 80 | 999 |
| 07/04 | 06:00 | TDDepressão tropical | 75 | 999 |
| 07/04 | 03:00 | TSTempestade tropical | 75 | 999 |
| 07/04 | 00:00 | TDDepressão tropical | 75 | 999 |
| 06/04 | 21:00 | TSTempestade tropical | 75 | 999 |
| 06/04 | 18:00 | TDDepressão tropical | 75 | 998 |
| 06/04 | 15:00 | TSTempestade tropical | 80 | 997 |
| 06/04 | 12:00 | C1Ciclone tropical de categoria 1 | 85 | 995 |
| 06/04 | 09:00 | TSTempestade tropical | 90 | 995 |
| 06/04 | 06:00 | C1Ciclone tropical de categoria 1 | 95 | 994 |
| 06/04 | 03:00 | TSTempestade tropical | 100 | 992 |
| 06/04 | 00:00 | C1Ciclone tropical de categoria 1 | 110 | 989 |
| 05/04 | 21:00 | TSTempestade tropical | 100 | 992 |
| 05/04 | 18:00 | C1Ciclone tropical de categoria 1 | 95 | 994 |
| 05/04 | 15:00 | TSTempestade tropical | 95 | 994 |
| 05/04 | 12:00 | C1Ciclone tropical de categoria 1 | 95 | 994 |
| 05/04 | 09:00 | TSTempestade tropical | 90 | 994 |
| 05/04 | 06:00 | C1Ciclone tropical de categoria 1 | 85 | 993 |
| 05/04 | 03:00 | TSTempestade tropical | 85 | 993 |
| 05/04 | 00:00 | C1Ciclone tropical de categoria 1 | 85 | 992 |
| 04/04 | 21:00 | TSTempestade tropical | 85 | 993 |
| 04/04 | 18:00 | C1Ciclone tropical de categoria 1 | 85 | 993 |
| 04/04 | 15:00 | TSTempestade tropical | 80 | 995 |
| 04/04 | 12:00 | C1Ciclone tropical de categoria 1 | 75 | 997 |
| 04/04 | 09:00 | TSTempestade tropical | 70 | 997 |
| 04/04 | 06:00 | TDDepressão tropical | 65 | 996 |
| 04/04 | 03:00 | TDDepressão tropical | 60 | 998 |
| 04/04 | 00:00 | TDDepressão tropical | 55 | 999 |
| 03/04 | 21:00 | TDDepressão tropical | 55 | 999 |
| 03/04 | 18:00 | TDDepressão tropical | 55 | 999 |
| 03/04 | 15:00 | TDDepressão tropical | 55 | 999 |
| 03/04 | 12:00 | TDDepressão tropical | 55 | 999 |
| 03/04 | 09:00 | TDDepressão tropical | 50 | 1002 |
| 03/04 | 06:00 | TDDepressão tropical | 45 | 1004 |
| 03/04 | 03:00 | TDDepressão tropical | 45 | 1002 |
| 03/04 | 00:00 | TDDepressão tropical | 45 | 1003 |
| 02/04 | 21:00 | TDDepressão tropical | 45 | 1003 |
| 02/04 | 18:00 | TDDepressão tropical | 45 | 1002 |
| 02/04 | 15:00 | TDDepressão tropical | 45 | 1002 |
| 02/04 | 12:00 | DBPerturbação tropical | 35 | 1002 |
Cronologia de localização
77 Registos de localizaçãoDesastres naturais próximos
Detalhes do evento
Ligações das fontes
Também pode encontrar estas ferramentas úteis
A localização, a extensão e o estado de cada evento podem ser atualizados em momentos diferentes consoante a fonte. Confirme decisões importantes junto das autoridades oficiais de emergência.
Os registos de eventos provêm da NASA EONET e são complementados por registos de deslizamentos de terra do USGS FDSN. As análises e previsões de tempestades podem utilizar a NOAA NHC ou o JTWC, com registos históricos ATCF da UCAR/NCAR quando disponíveis. As imagens de satélite provêm da NASA Worldview/GIBS (GOES e Himawari) ou da EUMETSAT Meteosat, consoante a cobertura do mapa.
Fontes: NASA EONET · USGS · NOAA NHC · JTWC · UCAR/NCAR ATCF · NASA Worldview/GIBS · EUMETSAT Meteosat · OpenStreetMap contributors